Time;durP1;ratioP1;P1;durP2;ratioP2;P2;SDS_P1;SDS_P2;PMS_P1;PMS_P2;Temp;Humidity;BMP_temperature;BMP_pressure;BME280_temperature;BME280_humidity;BME280_pressure;Samples;Min_cycle;Max_cycle;Signal;HPM_P1;HPM_P2
2021/12/13 00:01:33;;;;;;;163.30;52.55;;;10.50;99.90;;;;;;4998431;28;20038;-87
2021/12/13 00:04:19;;;;;;;194.43;57.45;;;10.50;99.90;;;;;;4963663;28;20055;-87
2021/12/13 00:06:50;;;;;;;172.05;55.00;;;10.50;99.90;;;;;;4979761;28;20105;-87
2021/12/13 00:09:20;;;;;;;208.87;57.53;;;10.50;99.90;;;;;;4979735;28;20047;-87
2021/12/13 00:11:49;;;;;;;171.60;55.72;;;10.50;99.90;;;;;;4978846;28;20313;-87
2021/12/13 00:14:34;;;;;;;176.38;55.85;;;10.50;99.90;;;;;;4980088;28;20125;-87
2021/12/13 00:17:13;;;;;;;188.15;56.38;;;10.50;99.90;;;;;;4979860;28;20039;-87
2021/12/13 00:20:13;;;;;;;206.93;59.22;;;10.50;99.90;;;;;;4979702;28;20460;-87
2021/12/13 00:22:50;;;;;;;178.57;56.85;;;10.50;99.90;;;;;;4954661;28;20047;-87
2021/12/13 00:25:20;;;;;;;161.65;55.97;;;10.50;99.90;;;;;;4978280;28;20043;-87
2021/12/13 00:27:53;;;;;;;168.68;56.38;;;10.50;99.90;;;;;;4979004;28;20043;-87
2021/12/13 00:30:25;;;;;;;166.77;55.75;;;10.50;99.90;;;;;;4978885;28;20058;-87
2021/12/13 00:33:09;;;;;;;158.75;56.47;;;10.50;99.90;;;;;;4979111;28;20046;-87
2021/12/13 00:35:52;;;;;;;152.48;54.17;;;10.40;99.90;;;;;;4980081;28;20129;-87
2021/12/13 00:38:22;;;;;;;137.07;52.40;;;10.50;99.90;;;;;;4979972;28;20046;-87
2021/12/13 00:40:53;;;;;;;135.73;51.92;;;10.50;99.90;;;;;;4978802;28;20126;-87
2021/12/13 00:43:29;;;;;;;107.97;44.50;;;10.50;99.90;;;;;;4980020;28;20462;-87
2021/12/13 00:46:09;;;;;;;122.43;47.72;;;10.50;99.90;;;;;;4980081;28;20085;-87
2021/12/13 00:48:38;;;;;;;122.22;48.20;;;10.50;99.90;;;;;;4983349;28;20043;-87
2021/12/13 00:51:22;;;;;;;109.55;45.92;;;10.50;99.90;;;;;;4982332;28;20074;-87
2021/12/13 00:53:50;;;;;;;106.68;45.20;;;10.50;99.90;;;;;;4981486;28;20045;-87
2021/12/13 00:56:41;;;;;;;117.13;48.35;;;10.50;99.90;;;;;;4981523;28;20049;-87
2021/12/13 00:59:09;;;;;;;112.30;46.75;;;10.50;99.90;;;;;;4982530;28;20199;-87
2021/12/13 01:01:35;;;;;;;108.45;44.67;;;10.40;99.90;;;;;;4981779;28;20130;-87
2021/12/13 01:04:07;;;;;;;107.82;45.20;;;10.50;99.90;;;;;;4946612;29;20063;-87
2021/12/13 01:07:14;;;;;;;118.20;47.88;;;10.50;99.90;;;;;;4962718;29;20126;-87
2021/12/13 01:09:58;;;;;;;128.60;47.42;;;10.50;99.90;;;;;;4947264;29;20047;-87
2021/12/13 01:12:25;;;;;;;124.53;47.85;;;10.50;99.90;;;;;;4979716;28;20051;-87
2021/12/13 01:15:04;;;;;;;130.07;47.67;;;10.50;99.90;;;;;;4962997;29;20043;-87
2021/12/13 01:17:54;;;;;;;124.38;47.92;;;10.50;99.90;;;;;;4962436;29;20113;-87
2021/12/13 01:20:55;;;;;;;139.02;48.60;;;10.50;99.90;;;;;;4962455;29;20050;-87
2021/12/13 01:23:45;;;;;;;122.60;46.03;;;10.50;99.90;;;;;;4963248;29;20043;-87
2021/12/13 01:28:46;;;;;;;135.20;48.92;;;10.50;99.90;;;;;;4962282;29;20047;-87
2021/12/13 01:31:19;;;;;;;131.52;48.88;;;10.50;99.90;;;;;;4963280;29;20110;-87
2021/12/13 01:33:47;;;;;;;132.57;48.22;;;10.50;99.90;;;;;;4963411;28;20047;-87
2021/12/13 01:36:20;;;;;;;123.78;46.17;;;10.50;99.90;;;;;;4963693;28;20470;-87
2021/12/13 01:39:00;;;;;;;130.50;48.45;;;10.50;99.90;;;;;;4947936;29;20039;-87
2021/12/13 01:41:31;;;;;;;137.57;47.60;;;10.50;99.90;;;;;;4962534;29;20372;-87
2021/12/13 01:44:11;;;;;;;152.88;50.08;;;10.50;99.90;;;;;;4962356;29;20177;-87
2021/12/13 01:46:41;;;;;;;137.07;47.05;;;10.40;99.90;;;;;;4980038;28;20082;-87
2021/12/13 01:49:08;;;;;;;140.93;47.20;;;10.40;99.90;;;;;;4980034;28;20039;-87
2021/12/13 01:51:35;;;;;;;114.68;43.65;;;10.40;99.90;;;;;;4948334;29;20090;-87
2021/12/13 01:54:14;;;;;;;108.85;43.20;;;10.40;99.90;;;;;;4980428;28;20082;-87
2021/12/13 01:56:57;;;;;;;113.43;43.53;;;10.40;99.90;;;;;;4978306;28;20051;-87
2021/12/13 02:02:30;;;;;;;96.72;41.60;;;10.40;99.90;;;;;;4983485;28;20399;-87
2021/12/13 02:05:11;;;;;;;90.40;39.55;;;10.50;99.90;;;;;;4969931;28;20050;-87
2021/12/13 02:07:45;;;;;;;87.05;39.75;;;10.50;99.90;;;;;;4986896;28;20042;-87
2021/12/13 02:10:17;;;;;;;82.38;39.20;;;10.50;99.90;;;;;;4985960;28;20049;-87
2021/12/13 02:12:45;;;;;;;;;;;10.50;99.90;;;;;;4986907;28;20039;-87
2021/12/13 02:17:58;;;;;;;86.35;38.95;;;10.50;99.90;;;;;;4973705;28;20128;-87
2021/12/13 02:20:41;;;;;;;76.57;37.72;;;10.50;99.90;;;;;;4954399;28;20049;-87
2021/12/13 02:23:07;;;;;;;77.57;37.08;;;10.50;99.90;;;;;;4986691;28;20038;-87
2021/12/13 02:25:39;;;;;;;71.15;37.25;;;10.50;99.90;;;;;;4985993;28;20086;-87
2021/12/13 02:28:09;;;;;;;66.88;35.95;;;10.50;99.90;;;;;;4986837;28;20042;-87
2021/12/13 02:30:49;;;;;;;67.25;35.08;;;10.50;99.90;;;;;;4985853;28;20081;-87
2021/12/13 02:33:23;;;;;;;55.20;30.75;;;10.50;99.90;;;;;;4984972;28;20042;-87
2021/12/13 02:36:03;;;;;;;59.97;33.00;;;10.60;99.90;;;;;;4985866;28;20048;-87
2021/12/13 02:38:29;;;;;;;52.17;30.05;;;10.60;99.90;;;;;;4985024;28;20398;-87
2021/12/13 02:40:55;;;;;;;59.33;33.03;;;10.60;99.90;;;;;;4984743;28;20128;-87
2021/12/13 02:43:25;;;;;;;56.47;31.77;;;10.50;99.90;;;;;;4970050;28;20038;-87
2021/12/13 02:45:56;;;;;;;56.03;31.52;;;10.50;99.90;;;;;;4985388;28;20038;-87
2021/12/13 02:48:28;;;;;;;56.40;31.80;;;10.50;99.90;;;;;;4985634;28;20121;-87
2021/12/13 02:51:00;;;;;;;54.58;32.75;;;10.50;99.90;;;;;;4968878;28;20559;-87
2021/12/13 02:53:37;;;;;;;58.05;33.30;;;10.50;99.90;;;;;;4985283;28;20066;-87
2021/12/13 02:56:04;;;;;;;57.88;31.75;;;10.50;99.90;;;;;;4984853;28;20038;-87
2021/12/13 02:58:31;;;;;;;56.22;32.10;;;10.50;99.90;;;;;;4967889;28;20113;-87
2021/12/13 03:01:06;;;;;;;64.38;34.63;;;10.50;99.90;;;;;;4967780;28;20042;-87
2021/12/13 03:03:37;;;;;;;65.60;34.80;;;10.50;99.90;;;;;;4982900;28;20059;-87
2021/12/13 03:06:06;;;;;;;57.72;33.88;;;10.50;99.90;;;;;;4999567;28;20480;-87
2021/12/13 03:08:45;;;;;;;59.60;34.25;;;10.50;99.90;;;;;;4982902;28;20105;-87
2021/12/13 03:11:22;;;;;;;58.97;34.88;;;10.50;99.90;;;;;;4998877;28;20048;-87
2021/12/13 03:13:53;;;;;;;58.38;32.92;;;10.50;99.90;;;;;;5000322;28;20490;-87
2021/12/13 03:16:22;;;;;;;54.67;33.42;;;10.50;99.90;;;;;;4983773;28;20046;-87
2021/12/13 03:18:59;;;;;;;57.42;34.13;;;10.50;99.90;;;;;;4983434;28;20041;-87
2021/12/13 03:21:55;;;;;;;52.95;34.00;;;10.50;99.90;;;;;;4982662;28;20043;-87
2021/12/13 03:24:56;;;;;;;56.00;33.63;;;10.50;99.90;;;;;;4982421;28;20045;-87
2021/12/13 03:27:42;;;;;;;56.55;33.97;;;10.50;99.90;;;;;;4924556;29;20043;-87
2021/12/13 03:30:23;;;;;;;51.97;33.05;;;10.50;99.90;;;;;;4979485;28;20437;-87
2021/12/13 03:33:05;;;;;;;53.10;32.20;;;10.50;99.90;;;;;;4983461;28;20062;-87
2021/12/13 03:35:43;;;;;;;47.88;30.27;;;10.50;99.90;;;;;;4999779;28;20082;-87
2021/12/13 03:38:18;;;;;;;47.90;29.75;;;10.40;99.90;;;;;;4998953;28;20038;-87
2021/12/13 03:40:46;;;;;;;45.85;28.95;;;10.50;99.90;;;;;;4982617;28;20042;-87
2021/12/13 03:43:23;;;;;;;47.72;29.58;;;10.40;99.90;;;;;;4950868;28;20038;-87
2021/12/13 03:45:54;;;;;;;47.33;29.48;;;10.40;99.90;;;;;;4983686;28;20048;-87
2021/12/13 03:48:23;;;;;;;42.83;27.73;;;10.40;99.90;;;;;;4983881;28;20046;-87
2021/12/13 03:50:52;;;;;;;43.13;27.17;;;10.40;99.90;;;;;;4984097;28;20049;-87
2021/12/13 03:53:22;;;;;;;48.65;29.60;;;10.30;99.90;;;;;;4984621;28;20502;-87
2021/12/13 03:55:52;;;;;;;41.63;27.80;;;10.30;99.90;;;;;;4983639;28;20126;-87
2021/12/13 03:58:21;;;;;;;43.90;28.38;;;10.30;99.90;;;;;;4984213;28;20053;-87
2021/12/13 04:00:55;;;;;;;43.63;27.90;;;10.30;99.90;;;;;;4983765;28;20038;-87
2021/12/13 04:03:24;;;;;;;43.10;27.92;;;10.30;99.90;;;;;;4968394;28;20059;-87
2021/12/13 04:05:52;;;;;;;45.20;28.17;;;10.20;99.90;;;;;;4984147;28;20561;-87
2021/12/13 04:08:20;;;;;;;40.85;26.52;;;10.20;99.90;;;;;;4984482;28;20038;-87
2021/12/13 04:11:03;;;;;;;41.58;26.05;;;10.10;99.90;;;;;;4983235;28;20478;-87
2021/12/13 04:13:34;;;;;;;34.58;23.83;;;10.10;99.90;;;;;;4984060;28;20414;-87
2021/12/13 04:16:15;;;;;;;34.17;24.27;;;10.10;99.90;;;;;;4983732;28;20068;-87
2021/12/13 04:21:39;;;;;;;33.70;21.90;;;10.00;99.90;;;;;;4985626;28;20039;-87
2021/12/13 04:24:07;;;;;;;34.55;22.52;;;10.00;99.90;;;;;;4987363;28;20393;-87
2021/12/13 04:26:43;;;;;;;32.80;21.02;;;10.00;99.90;;;;;;4986860;28;20050;-87
2021/12/13 04:29:29;;;;;;;34.28;21.25;;;10.00;99.90;;;;;;4988505;28;20042;-87
2021/12/13 04:31:56;;;;;;;34.45;20.95;;;10.00;99.90;;;;;;5004628;28;20452;-87
2021/12/13 04:34:27;;;;;;;36.10;20.60;;;9.90;99.90;;;;;;4954995;28;20132;-87
2021/12/13 04:36:55;;;;;;;34.63;18.10;;;9.90;99.90;;;;;;4987260;28;20050;-87
2021/12/13 04:39:29;;;;;;;29.23;18.52;;;9.80;99.90;;;;;;4970461;28;20038;-87
2021/12/13 04:42:04;;;;;;;32.20;19.13;;;9.80;99.90;;;;;;4986048;28;20038;-87
2021/12/13 04:44:33;;;;;;;34.08;18.08;;;9.70;99.90;;;;;;4986623;28;20035;-87
2021/12/13 04:47:14;;;;;;;30.00;17.83;;;9.70;99.90;;;;;;4987420;28;20042;-87
2021/12/13 04:49:46;;;;;;;28.90;17.77;;;9.70;99.90;;;;;;5002934;28;20042;-87
2021/12/13 04:52:17;;;;;;;29.88;17.95;;;9.60;99.90;;;;;;5002246;28;20093;-87
2021/12/13 04:54:51;;;;;;;34.92;19.00;;;9.50;99.90;;;;;;5002173;28;20086;-87
2021/12/13 04:57:17;;;;;;;34.47;18.50;;;9.40;99.90;;;;;;5002438;28;20097;-87
2021/12/13 04:59:56;;;;;;;31.35;18.00;;;9.30;99.90;;;;;;4955037;28;20042;-87
2021/12/13 05:02:23;;;;;;;31.25;18.50;;;9.30;99.90;;;;;;4986198;28;20062;-87
2021/12/13 05:05:01;;;;;;;32.78;18.85;;;9.30;99.90;;;;;;4970484;28;20101;-87
2021/12/13 05:07:30;;;;;;;32.15;18.33;;;9.30;99.90;;;;;;5003067;28;20046;-87
2021/12/13 05:09:57;;;;;;;30.88;18.50;;;9.20;99.90;;;;;;4987750;28;20046;-87
2021/12/13 05:12:28;;;;;;;28.88;18.08;;;9.20;99.90;;;;;;4986640;28;20046;-87
2021/12/13 05:15:11;;;;;;;33.47;19.25;;;9.10;99.90;;;;;;4986928;28;20102;-87
2021/12/13 05:17:42;;;;;;;;;;;9.20;99.90;;;;;;5003083;28;20504;-87
2021/12/13 05:20:16;;;;;;;27.23;16.85;;;9.10;99.90;;;;;;4971169;28;19924;-87
2021/12/13 05:22:55;;;;;;;31.85;17.60;;;9.20;99.90;;;;;;5002335;28;20038;-87
2021/12/13 05:25:53;;;;;;;30.45;18.23;;;9.20;99.90;;;;;;4985163;28;20065;-87
2021/12/13 05:28:23;;;;;;;32.35;18.75;;;9.20;99.90;;;;;;4985711;28;20042;-87
2021/12/13 05:31:10;;;;;;;28.60;18.65;;;9.20;99.90;;;;;;4984811;28;20049;-87
2021/12/13 05:33:39;;;;;;;30.63;18.42;;;9.20;99.90;;;;;;4985799;28;20054;-87
2021/12/13 05:36:09;;;;;;;32.58;18.73;;;9.20;99.90;;;;;;4984348;28;20092;-87
2021/12/13 05:38:39;;;;;;;31.23;17.35;;;9.20;99.90;;;;;;4969854;28;20046;-87
2021/12/13 05:41:08;;;;;;;30.75;19.10;;;9.20;99.90;;;;;;4986317;28;20074;-85
2021/12/13 05:43:48;;;;;;;31.98;18.63;;;9.30;99.90;;;;;;4991189;28;20049;-86
2021/12/13 05:46:20;;;;;;;31.48;19.60;;;9.20;99.90;;;;;;4989450;28;20118;-86
2021/12/13 05:48:50;;;;;;;31.83;19.30;;;9.20;99.90;;;;;;4984638;28;20048;-84
2021/12/13 05:51:42;;;;;;;32.83;20.23;;;9.20;99.90;;;;;;4987433;28;20129;-87
2021/12/13 05:54:14;;;;;;;32.25;19.92;;;9.20;99.90;;;;;;4985633;28;20049;-86
2021/12/13 05:56:50;;;;;;;34.40;20.35;;;9.20;99.90;;;;;;4981992;28;20046;-85
2021/12/13 05:59:24;;;;;;;35.92;21.60;;;9.30;99.90;;;;;;5004560;28;20098;-86
2021/12/13 06:02:07;;;;;;;34.30;21.10;;;9.30;99.90;;;;;;5009684;28;20047;-86
2021/12/13 06:04:59;;;;;;;36.38;21.83;;;9.30;99.90;;;;;;4989272;28;20086;-87
2021/12/13 06:07:39;;;;;;;35.58;21.98;;;9.30;99.90;;;;;;4973925;28;20046;-87
2021/12/13 06:10:15;;;;;;;34.90;22.08;;;9.30;99.90;;;;;;4989229;28;20043;-87
2021/12/13 06:12:49;;;;;;;40.78;23.25;;;9.30;99.90;;;;;;4990371;28;20034;-87
2021/12/13 06:15:15;;;;;;;44.38;23.50;;;9.30;99.90;;;;;;4978737;28;20045;-86
2021/12/13 06:17:54;;;;;;;39.25;23.50;;;9.30;99.90;;;;;;4989103;28;20034;-84
2021/12/13 06:20:40;;;;;;;36.83;23.33;;;9.30;99.90;;;;;;4975490;28;20487;-84
2021/12/13 06:23:18;;;;;;;41.70;24.35;;;9.30;99.90;;;;;;4976613;28;20709;-84
2021/12/13 06:25:47;;;;;;;41.25;24.98;;;9.30;99.90;;;;;;4980284;28;20034;-83
2021/12/13 06:28:45;;;;;;;42.88;25.45;;;9.30;99.90;;;;;;4978640;28;20053;-83
2021/12/13 06:31:15;;;;;;;40.95;25.13;;;9.30;99.90;;;;;;4958187;28;20086;-84
2021/12/13 06:33:59;;;;;;;45.20;27.50;;;9.20;99.90;;;;;;4982077;28;20053;-84
2021/12/13 06:36:32;;;;;;;42.83;25.55;;;9.20;99.90;;;;;;4984071;28;20046;-84
2021/12/13 06:39:20;;;;;;;43.72;27.27;;;9.30;99.90;;;;;;5005499;28;20101;-84
2021/12/13 06:41:51;;;;;;;52.05;29.27;;;9.30;99.90;;;;;;4971681;28;20545;-84
2021/12/13 06:44:25;;;;;;;49.35;30.52;;;9.30;99.90;;;;;;5004533;28;20104;-83
2021/12/13 06:47:19;;;;;;;51.95;31.30;;;9.30;99.90;;;;;;5003441;28;20042;-83
2021/12/13 06:49:53;;;;;;;56.72;33.28;;;9.30;99.90;;;;;;5005361;28;20046;-83
2021/12/13 06:52:32;;;;;;;55.30;33.22;;;9.30;99.90;;;;;;4985809;28;20490;-84
2021/12/13 06:55:13;;;;;;;59.60;35.17;;;9.30;99.90;;;;;;4990661;28;20153;-83
2021/12/13 06:57:43;;;;;;;56.15;34.17;;;9.30;99.90;;;;;;4995177;28;20042;-83
2021/12/13 07:00:20;;;;;;;60.40;35.92;;;9.30;99.90;;;;;;5010176;28;20038;-83
2021/12/13 07:03:18;;;;;;;65.20;37.78;;;9.30;99.90;;;;;;4993176;28;20093;-83
2021/12/13 07:05:56;;;;;;;62.08;37.03;;;9.30;99.90;;;;;;4984254;28;20054;-83
2021/12/13 07:08:44;;;;;;;62.47;37.65;;;9.30;99.90;;;;;;5007130;28;20042;-83
2021/12/13 07:11:13;;;;;;;61.85;38.08;;;9.30;99.90;;;;;;4968394;28;20070;-85
2021/12/13 07:14:01;;;;;;;67.30;38.28;;;9.20;99.90;;;;;;4984527;28;20122;-85
2021/12/13 07:16:34;;;;;;;63.00;38.28;;;9.30;99.90;;;;;;4978823;28;20046;-84
2021/12/13 07:19:23;;;;;;;64.22;39.25;;;9.30;99.90;;;;;;4979670;28;20042;-84
2021/12/13 07:22:03;;;;;;;60.05;37.53;;;9.20;99.90;;;;;;4978794;28;20046;-84
2021/12/13 07:24:46;;;;;;;65.22;38.88;;;9.30;99.90;;;;;;4983820;28;20042;-84
2021/12/13 07:27:28;;;;;;;62.60;39.28;;;9.30;99.90;;;;;;4979358;28;20046;-84
2021/12/13 07:29:57;;;;;;;65.93;38.63;;;9.30;99.90;;;;;;5000186;28;20070;-84
2021/12/13 07:32:32;;;;;;;62.08;38.50;;;9.20;99.90;;;;;;4982199;28;20042;-84
2021/12/13 07:35:10;;;;;;;65.82;40.35;;;9.30;99.90;;;;;;4979792;28;20050;-84
2021/12/13 07:37:39;;;;;;;65.45;38.25;;;9.30;99.90;;;;;;4983435;28;20070;-84
2021/12/13 07:40:16;;;;;;;67.25;40.47;;;9.30;99.90;;;;;;4983575;28;20035;-84
2021/12/13 07:42:55;;;;;;;61.45;40.00;;;9.20;99.90;;;;;;4931988;28;20083;-84
2021/12/13 07:45:30;;;;;;;66.50;40.50;;;9.20;99.90;;;;;;4918166;28;20055;-84
2021/12/13 07:47:58;;;;;;;66.15;40.75;;;9.30;99.90;;;;;;4978004;28;20078;-85
2021/12/13 07:50:25;;;;;;;60.10;39.28;;;9.20;99.90;;;;;;4983189;28;20046;-84
2021/12/13 07:53:03;;;;;;;62.20;38.80;;;9.30;99.90;;;;;;4967456;28;20038;-84
2021/12/13 07:55:30;;;;;;;63.97;40.50;;;9.20;99.90;;;;;;4982886;28;20157;-84
2021/12/13 07:58:01;;;;;;;65.40;41.35;;;9.30;99.90;;;;;;4980595;28;20057;-84
2021/12/13 08:00:38;;;;;;;67.03;41.07;;;9.30;99.90;;;;;;4977376;28;20069;-84
2021/12/13 08:03:08;;;;;;;65.97;40.78;;;9.30;99.90;;;;;;4983264;28;20054;-84
2021/12/13 08:05:39;;;;;;;60.13;39.60;;;9.30;99.90;;;;;;4972785;28;20050;-84
2021/12/13 08:08:07;;;;;;;61.10;39.88;;;9.30;99.90;;;;;;4978349;28;20074;-84
2021/12/13 08:10:40;;;;;;;60.45;40.25;;;9.30;99.90;;;;;;4966313;28;20050;-84
2021/12/13 08:13:10;;;;;;;63.03;40.35;;;9.30;99.90;;;;;;4980319;28;20047;-84
2021/12/13 08:15:43;;;;;;;60.65;39.67;;;9.30;99.90;;;;;;4975787;28;20070;-84
2021/12/13 08:18:23;;;;;;;61.67;40.75;;;9.30;99.90;;;;;;4986222;28;20125;-84
2021/12/13 08:21:08;;;;;;;60.60;40.53;;;9.30;99.90;;;;;;4978932;28;20038;-84
2021/12/13 08:23:56;;;;;;;61.92;39.25;;;9.30;99.90;;;;;;4966469;28;20077;-84
2021/12/13 08:26:41;;;;;;;65.38;41.72;;;9.30;99.90;;;;;;4979457;28;20077;-84
2021/12/13 08:29:17;;;;;;;61.03;41.50;;;9.30;99.90;;;;;;4975086;28;20478;-84
2021/12/13 08:31:46;;;;;;;63.42;42.00;;;9.30;99.90;;;;;;4997718;28;20066;-84
2021/12/13 08:34:22;;;;;;;59.38;40.20;;;9.30;99.90;;;;;;4980030;28;20138;-84
2021/12/13 08:36:50;;;;;;;64.10;41.63;;;9.30;99.90;;;;;;4979942;28;20046;-84
2021/12/13 08:39:28;;;;;;;61.22;41.90;;;9.30;99.90;;;;;;4979135;28;20046;-84
2021/12/13 08:41:56;;;;;;;60.40;41.13;;;9.40;99.90;;;;;;4977603;28;20049;-84
2021/12/13 08:44:36;;;;;;;65.53;41.20;;;9.30;99.90;;;;;;4971074;28;20038;-84
2021/12/13 08:47:09;;;;;;;60.95;40.53;;;9.30;99.90;;;;;;4982152;28;20050;-84
2021/12/13 08:49:47;;;;;;;59.08;39.70;;;9.40;99.90;;;;;;4983497;28;20038;-84
2021/12/13 08:52:16;;;;;;;64.80;42.47;;;9.40;99.90;;;;;;4982369;28;20619;-84
2021/12/13 08:54:49;;;;;;;60.15;41.60;;;9.30;99.90;;;;;;4981764;28;20069;-84
2021/12/13 08:57:43;;;;;;;59.75;41.80;;;9.30;99.90;;;;;;4996039;28;20449;-84
2021/12/13 09:00:21;;;;;;;63.13;41.45;;;9.40;99.90;;;;;;4979780;28;20102;-84
2021/12/13 09:02:53;;;;;;;64.20;41.05;;;9.30;99.90;;;;;;4982191;28;20046;-84
2021/12/13 09:05:47;;;;;;;60.35;40.22;;;9.30;99.90;;;;;;4980074;28;20109;-84
2021/12/13 09:08:15;;;;;;;59.80;40.05;;;9.30;99.90;;;;;;4964570;28;20047;-84
2021/12/13 09:10:44;;;;;;;60.60;40.58;;;9.30;99.90;;;;;;4982464;28;20049;-84
2021/12/13 09:13:11;;;;;;;65.55;41.22;;;9.30;99.90;;;;;;4971758;28;20041;-84
2021/12/13 09:15:37;;;;;;;58.17;39.00;;;9.30;99.90;;;;;;4970576;28;20066;-84
2021/12/13 09:18:05;;;;;;;60.30;38.88;;;9.40;99.90;;;;;;4971191;28;20076;-84
2021/12/13 09:20:46;;;;;;;56.63;39.15;;;9.40;99.90;;;;;;4982171;28;20034;-84
2021/12/13 09:23:23;;;;;;;60.53;38.88;;;9.40;99.90;;;;;;5002167;28;20401;-84
2021/12/13 09:26:03;;;;;;;56.63;38.40;;;9.40;99.90;;;;;;4986798;28;20101;-84
2021/12/13 09:28:49;;;;;;;56.15;37.80;;;9.40;99.90;;;;;;4978198;28;20047;-84
2021/12/13 09:31:42;;;;;;;54.38;37.85;;;9.40;99.90;;;;;;4985267;28;20042;-83
2021/12/13 09:34:17;;;;;;;55.17;36.75;;;9.40;99.90;;;;;;4970277;28;20050;-83
2021/12/13 09:36:47;;;;;;;51.22;36.20;;;9.40;99.90;;;;;;4993605;28;20098;-84
2021/12/13 09:39:22;;;;;;;56.50;37.92;;;9.40;99.90;;;;;;4987164;28;20046;-84
2021/12/13 09:41:57;;;;;;;53.92;37.83;;;9.40;99.90;;;;;;5000563;28;20117;-84
2021/12/13 09:44:37;;;;;;;50.83;34.55;;;9.40;99.90;;;;;;4984899;28;20039;-84
2021/12/13 09:47:04;;;;;;;53.85;35.60;;;9.40;99.90;;;;;;4998593;28;20038;-84
2021/12/13 09:49:41;;;;;;;50.58;35.60;;;9.50;99.90;;;;;;4979844;28;20034;-84
2021/12/13 09:52:18;;;;;;;49.17;34.22;;;9.50;99.90;;;;;;4986884;28;20065;-84
2021/12/13 09:54:53;;;;;;;51.60;35.90;;;9.50;99.90;;;;;;4978022;28;20046;-84
2021/12/13 09:57:31;;;;;;;50.80;35.78;;;9.50;99.90;;;;;;4984463;28;20045;-84
2021/12/13 09:59:58;;;;;;;52.70;35.53;;;9.60;99.90;;;;;;4981523;28;20042;-84
2021/12/13 10:02:31;;;;;;;50.40;34.78;;;9.60;99.90;;;;;;4982858;28;20038;-84
2021/12/13 10:04:57;;;;;;;49.13;34.80;;;9.60;99.90;;;;;;4996941;28;20050;-84
2021/12/13 10:07:28;;;;;;;47.92;31.83;;;9.60;99.90;;;;;;4976042;28;20105;-84
2021/12/13 10:09:59;;;;;;;47.92;32.83;;;9.60;99.90;;;;;;4985799;28;20069;-84
2021/12/13 10:12:39;;;;;;;43.33;30.98;;;9.60;99.90;;;;;;4985477;28;20042;-84
2021/12/13 10:15:07;;;;;;;46.75;31.40;;;9.60;99.90;;;;;;4975547;28;20043;-84
2021/12/13 10:17:37;;;;;;;42.78;30.52;;;9.70;99.90;;;;;;4980149;28;20078;-84
2021/12/13 10:20:23;;;;;;;45.42;32.15;;;9.70;99.90;;;;;;4980265;28;20051;-84
2021/12/13 10:22:50;;;;;;;41.15;28.42;;;9.70;99.90;;;;;;4983992;28;20446;-84
2021/12/13 10:25:24;;;;;;;41.25;29.50;;;9.70;99.90;;;;;;4965008;28;20050;-84
2021/12/13 10:27:51;;;;;;;41.80;29.42;;;9.70;99.90;;;;;;4984058;28;20125;-84
2021/12/13 10:30:27;;;;;;;40.03;29.52;;;9.70;99.90;;;;;;4988368;28;20061;-84
2021/12/13 10:32:53;;;;;;;40.13;28.55;;;9.70;99.90;;;;;;4983617;28;20053;-84
2021/12/13 10:35:23;;;;;;;38.90;27.95;;;9.70;99.90;;;;;;4965870;28;20125;-84
2021/12/13 10:37:54;;;;;;;38.00;27.08;;;9.70;99.90;;;;;;4981242;28;20039;-84
2021/12/13 10:40:28;;;;;;;40.47;28.73;;;9.70;99.90;;;;;;4975491;28;20042;-84
2021/12/13 10:43:18;;;;;;;39.05;27.30;;;9.70;99.90;;;;;;4989327;28;20086;-84
2021/12/13 10:45:57;;;;;;;38.33;26.85;;;9.80;99.90;;;;;;4988887;28;20105;-84
2021/12/13 10:48:27;;;;;;;37.65;27.52;;;9.80;99.90;;;;;;4969045;28;20397;-84
2021/12/13 10:51:02;;;;;;;39.08;27.10;;;9.70;99.90;;;;;;4985058;28;20125;-84
2021/12/13 10:53:28;;;;;;;36.25;27.10;;;9.80;99.90;;;;;;4981485;28;20042;-84
2021/12/13 10:55:58;;;;;;;33.90;25.63;;;9.80;99.90;;;;;;4987102;28;20069;-84
2021/12/13 10:58:30;;;;;;;36.22;26.55;;;9.80;99.90;;;;;;4983946;28;20080;-84
2021/12/13 11:01:01;;;;;;;38.80;26.55;;;9.80;99.90;;;;;;4987190;28;20046;-84
2021/12/13 11:03:30;;;;;;;36.72;26.95;;;9.80;99.90;;;;;;4981143;28;20054;-84
2021/12/13 11:05:56;;;;;;;35.72;26.20;;;9.80;99.90;;;;;;4980947;28;20071;-84
2021/12/13 11:08:24;;;;;;;38.33;25.30;;;9.80;99.90;;;;;;4978747;28;20046;-84
2021/12/13 11:10:58;;;;;;;36.13;25.05;;;9.80;99.90;;;;;;4962470;28;20061;-84
2021/12/13 11:13:27;;;;;;;36.50;26.45;;;9.80;99.90;;;;;;4974947;28;20038;-84
2021/12/13 11:15:57;;;;;;;34.10;25.63;;;9.80;99.90;;;;;;4975280;28;20126;-84
2021/12/13 11:18:27;;;;;;;37.70;25.48;;;9.80;99.90;;;;;;4977392;28;20034;-84
2021/12/13 11:20:59;;;;;;;32.38;24.55;;;9.80;99.90;;;;;;4975509;28;20533;-84
2021/12/13 11:23:25;;;;;;;36.60;25.48;;;9.80;99.90;;;;;;4977535;28;20510;-84
2021/12/13 11:25:58;;;;;;;35.88;25.58;;;9.80;99.90;;;;;;4981276;28;20047;-85
2021/12/13 11:28:28;;;;;;;34.03;24.85;;;9.80;99.90;;;;;;4983535;28;20077;-85
2021/12/13 11:30:56;;;;;;;37.67;25.75;;;9.80;99.90;;;;;;4992956;28;20031;-85
2021/12/13 11:33:37;;;;;;;33.58;24.27;;;9.80;99.90;;;;;;4973098;28;20129;-85
2021/12/13 11:36:34;;;;;;;30.90;23.98;;;9.80;99.90;;;;;;4978668;28;20055;-85
2021/12/13 11:39:40;;;;;;;35.70;24.60;;;9.70;99.90;;;;;;5000741;28;20035;-84
2021/12/13 11:42:36;;;;;;;33.53;23.98;;;9.80;99.90;;;;;;4989540;28;20042;-84
2021/12/13 11:45:08;;;;;;;34.53;24.52;;;9.80;99.90;;;;;;4992022;28;20074;-84
2021/12/13 11:47:40;;;;;;;33.33;23.35;;;9.80;99.90;;;;;;4996569;28;20018;-84
2021/12/13 11:50:44;;;;;;;33.63;23.42;;;9.80;99.90;;;;;;5004286;28;20498;-84
2021/12/13 11:53:48;;;;;;;34.55;23.23;;;9.80;99.90;;;;;;4989833;28;20054;-84
2021/12/13 11:56:23;;;;;;;31.48;22.77;;;9.80;99.90;;;;;;4978418;28;20023;-84
2021/12/13 11:59:29;;;;;;;35.63;24.77;;;9.90;99.90;;;;;;5001862;28;20042;-84
2021/12/13 12:02:06;;;;;;;33.00;23.30;;;9.90;99.90;;;;;;4984726;28;20034;-84
2021/12/13 12:04:50;;;;;;;33.85;23.20;;;9.80;99.90;;;;;;4975230;28;20087;-84
2021/12/13 12:07:50;;;;;;;30.75;22.40;;;9.90;99.90;;;;;;4968287;28;20071;-84
2021/12/13 12:10:53;;;;;;;30.95;23.05;;;9.90;99.90;;;;;;4962477;28;20066;-84
2021/12/13 12:13:31;;;;;;;31.02;22.92;;;9.90;99.90;;;;;;4969011;28;20039;-84
2021/12/13 12:16:02;;;;;;;31.10;23.58;;;9.90;99.90;;;;;;4982383;28;20050;-84
2021/12/13 12:18:31;;;;;;;32.75;23.40;;;10.00;99.90;;;;;;4977646;28;20104;-84
2021/12/13 12:21:31;;;;;;;30.83;23.30;;;10.00;99.90;;;;;;4974486;28;20098;-84
2021/12/13 12:24:02;;;;;;;33.67;24.00;;;9.90;99.90;;;;;;4991881;28;20067;-84
2021/12/13 12:26:28;;;;;;;31.90;22.85;;;9.90;99.90;;;;;;4973832;28;20039;-84
2021/12/13 12:29:01;;;;;;;29.80;22.38;;;9.90;99.90;;;;;;4963159;29;20051;-84
2021/12/13 12:31:40;;;;;;;33.78;23.67;;;10.00;99.90;;;;;;4974730;28;20106;-84
2021/12/13 12:34:06;;;;;;;33.53;23.60;;;10.00;99.90;;;;;;4976997;28;20054;-84
2021/12/13 12:36:44;;;;;;;30.88;22.20;;;9.90;99.90;;;;;;4962205;28;20449;-84
2021/12/13 12:39:37;;;;;;;32.08;23.88;;;10.00;99.90;;;;;;4972203;28;20100;-84
2021/12/13 12:42:27;;;;;;;32.60;23.35;;;9.90;99.90;;;;;;4982833;28;20079;-84
2021/12/13 12:44:55;;;;;;;32.58;22.33;;;9.90;99.90;;;;;;4978007;28;20126;-84
2021/12/13 12:47:33;;;;;;;31.08;22.60;;;9.90;99.90;;;;;;4966465;28;20046;-84
2021/12/13 12:50:14;;;;;;;32.78;22.52;;;9.90;99.90;;;;;;4981040;28;20039;-84
2021/12/13 12:52:50;;;;;;;31.55;22.75;;;9.90;99.90;;;;;;4977817;28;20097;-84
2021/12/13 12:55:21;;;;;;;32.38;23.13;;;9.90;99.90;;;;;;4982456;28;20134;-84
2021/12/13 12:57:47;;;;;;;30.92;22.98;;;9.90;99.90;;;;;;4976785;28;20039;-84
2021/12/13 13:00:14;;;;;;;30.83;23.20;;;9.90;99.90;;;;;;4979957;28;20040;-84
2021/12/13 13:02:41;;;;;;;31.65;22.88;;;9.90;99.90;;;;;;4973637;28;20046;-84
2021/12/13 13:05:09;;;;;;;30.08;22.10;;;9.90;99.90;;;;;;4980806;28;20093;-84
2021/12/13 13:07:38;;;;;;;31.70;22.40;;;9.90;99.90;;;;;;4991525;28;20043;-84
2021/12/13 13:12:58;;;;;;;30.45;22.80;;;9.90;99.90;;;;;;4996085;28;20077;-84
2021/12/13 13:15:31;;;;;;;32.38;23.00;;;9.90;99.90;;;;;;4977944;28;20046;-84
2021/12/13 13:18:01;;;;;;;33.88;24.35;;;9.90;99.90;;;;;;4989437;28;20039;-84
2021/12/13 13:20:35;;;;;;;31.60;22.65;;;9.90;99.90;;;;;;4991104;28;20049;-84
2021/12/13 13:23:03;;;;;;;30.13;22.55;;;9.90;99.90;;;;;;4988924;28;20042;-84
2021/12/13 13:25:37;;;;;;;34.42;23.13;;;9.90;99.90;;;;;;4979010;28;20070;-84
2021/12/13 13:28:13;;;;;;;32.15;23.25;;;9.90;99.90;;;;;;4986824;28;20046;-84
2021/12/13 13:30:56;;;;;;;30.90;23.52;;;9.90;99.90;;;;;;4995461;28;20158;-84